createdAt,value
2023-02-28T00:00:50.700Z,37.38
2023-02-28T00:03:17.421Z,37.00
2023-02-28T00:05:44.200Z,36.98
2023-02-28T00:08:10.923Z,36.90
2023-02-28T00:10:37.437Z,37.16
2023-02-28T00:13:07.095Z,37.22
2023-02-28T00:15:34.468Z,37.41
2023-02-28T00:18:01.189Z,37.38
2023-02-28T00:20:27.935Z,37.38
2023-02-28T00:22:55.960Z,37.04
2023-02-28T00:25:25.486Z,37.23
2023-02-28T00:27:52.346Z,37.26
2023-02-28T00:30:24.308Z,36.95
2023-02-28T00:32:51.641Z,37.13
2023-02-28T00:35:18.439Z,36.75
2023-02-28T00:37:44.924Z,36.87
2023-02-28T00:40:13.010Z,36.90
2023-02-28T00:42:39.902Z,36.59
2023-02-28T00:45:09.227Z,36.81
2023-02-28T00:47:38.276Z,36.56
2023-02-28T00:50:05.981Z,36.93
2023-02-28T00:52:32.571Z,37.18
2023-02-28T00:54:59.168Z,37.13
2023-02-28T00:57:25.704Z,37.43
2023-02-28T00:59:52.253Z,37.40
2023-02-28T01:02:20.804Z,37.25
2023-02-28T01:04:47.913Z,37.58
2023-02-28T01:07:15.443Z,37.36
2023-02-28T01:09:42.518Z,37.61
2023-02-28T01:12:10.308Z,37.27
2023-02-28T01:14:37.267Z,37.50
2023-02-28T01:17:03.833Z,37.23
2023-02-28T01:19:32.052Z,37.16
2023-02-28T01:22:02.098Z,37.02
2023-02-28T01:24:28.724Z,37.06
2023-02-28T01:26:55.210Z,37.07
2023-02-28T01:29:21.706Z,37.04
2023-02-28T01:31:48.240Z,37.02
2023-02-28T01:34:14.785Z,36.99
2023-02-28T01:36:41.341Z,36.97
2023-02-28T01:39:07.873Z,36.50
2023-02-28T01:41:35.827Z,36.73
2023-02-28T01:44:23.153Z,36.55
2023-02-28T01:46:49.672Z,36.85
2023-02-28T01:49:18.852Z,36.54
2023-02-28T01:51:51.881Z,36.71
2023-02-28T01:54:25.118Z,36.76
2023-02-28T01:56:58.838Z,36.85
2023-02-28T01:59:41.450Z,37.08
2023-02-28T02:02:08.269Z,37.03
2023-02-28T02:04:40.984Z,37.14
2023-02-28T02:07:08.192Z,37.17
2023-02-28T02:09:34.889Z,36.52
2023-02-28T02:12:16.645Z,37.05
2023-02-28T02:15:04.626Z,36.93
2023-02-28T02:17:41.000Z,36.80
2023-02-28T02:20:25.734Z,36.77
2023-02-28T02:22:58.166Z,36.49
2023-02-28T02:25:37.848Z,36.82
2023-02-28T02:28:55.745Z,36.51
2023-02-28T02:32:10.423Z,36.75
2023-02-28T02:34:39.844Z,36.31
2023-02-28T02:37:13.228Z,36.30
2023-02-28T02:39:51.610Z,35.95
2023-02-28T02:42:29.518Z,35.87
2023-02-28T02:45:08.091Z,36.22
2023-02-28T02:47:36.894Z,36.44
2023-02-28T02:50:07.361Z,36.29
2023-02-28T02:52:40.145Z,36.48
2023-02-28T02:55:11.963Z,36.61
2023-02-28T02:57:49.130Z,36.54
2023-02-28T03:00:18.794Z,36.37
2023-02-28T03:02:49.745Z,36.48
2023-02-28T03:05:24.776Z,36.44
2023-02-28T03:07:51.295Z,36.64
2023-02-28T03:10:50.536Z,36.55
2023-02-28T03:13:29.432Z,36.04
2023-02-28T03:16:20.702Z,36.01
2023-02-28T03:19:06.080Z,35.85
2023-02-28T03:21:55.601Z,35.91
2023-02-28T03:24:44.245Z,35.89
2023-02-28T03:27:22.275Z,35.84
2023-02-28T03:29:57.608Z,35.96
2023-02-28T03:32:40.074Z,36.06
2023-02-28T03:35:22.700Z,35.78
2023-02-28T03:37:54.393Z,35.50
2023-02-28T03:40:25.979Z,35.73
2023-02-28T03:42:58.596Z,35.38
2023-02-28T03:45:28.820Z,35.71
2023-02-28T03:48:19.595Z,35.62
2023-02-28T03:50:54.443Z,36.07
2023-02-28T03:53:27.821Z,36.14
2023-02-28T03:56:01.334Z,35.73
2023-02-28T03:59:29.619Z,35.81
2023-02-28T04:01:56.363Z,35.83
2023-02-28T04:04:23.710Z,35.64
2023-02-28T04:06:54.224Z,35.39
2023-02-28T04:09:20.673Z,35.54
2023-02-28T04:11:52.768Z,35.32
2023-02-28T04:14:19.692Z,35.52
2023-02-28T04:16:46.369Z,35.14
2023-02-28T04:19:14.190Z,35.13
2023-02-28T04:21:43.554Z,35.41
2023-02-28T04:24:15.236Z,34.98
2023-02-28T04:26:44.848Z,35.05
2023-02-28T04:29:14.172Z,34.82
2023-02-28T04:31:41.560Z,35.23
2023-02-28T04:34:08.308Z,35.12
2023-02-28T04:36:34.812Z,34.94
2023-02-28T04:39:01.338Z,35.16
2023-02-28T04:41:30.283Z,35.18
2023-02-28T04:43:58.789Z,35.21
2023-02-28T04:46:25.689Z,34.99
2023-02-28T04:48:52.238Z,35.11
2023-02-28T04:51:20.658Z,35.30
2023-02-28T04:53:47.909Z,35.78
2023-02-28T04:56:16.282Z,35.61
2023-02-28T04:58:43.772Z,35.82
2023-02-28T05:01:23.312Z,35.30
2023-02-28T05:03:51.190Z,35.84
2023-02-28T05:06:18.225Z,35.48
2023-02-28T05:08:44.949Z,35.17
2023-02-28T05:11:20.723Z,35.35
2023-02-28T05:13:47.993Z,35.13
2023-02-28T05:16:14.949Z,35.33
2023-02-28T05:18:42.030Z,35.29
2023-02-28T05:21:24.827Z,35.08
2023-02-28T05:23:51.625Z,35.02
2023-02-28T05:26:18.148Z,34.97
2023-02-28T05:28:44.680Z,35.05
2023-02-28T05:31:12.307Z,34.71
2023-02-28T05:33:38.734Z,34.81
2023-02-28T05:36:05.623Z,34.78
2023-02-28T05:38:32.227Z,34.93
2023-02-28T05:40:58.783Z,34.66
2023-02-28T05:43:25.715Z,34.62
2023-02-28T05:45:52.318Z,34.49
2023-02-28T05:48:19.101Z,34.91
2023-02-28T05:50:47.072Z,34.85
2023-02-28T05:53:13.554Z,34.56
2023-02-28T05:55:42.131Z,34.68
2023-02-28T05:58:08.623Z,34.58
2023-02-28T06:00:35.976Z,34.61
2023-02-28T06:03:03.099Z,34.80
2023-02-28T06:05:29.656Z,34.81
2023-02-28T06:07:56.215Z,34.65
2023-02-28T06:10:22.892Z,34.54
2023-02-28T06:12:49.441Z,34.66
2023-02-28T06:15:17.636Z,35.02
2023-02-28T06:17:45.456Z,34.69
2023-02-28T06:20:13.838Z,34.97
2023-02-28T06:22:40.868Z,34.99
2023-02-28T06:25:08.298Z,35.23
2023-02-28T06:27:35.008Z,34.50
2023-02-28T06:30:01.582Z,34.74
2023-02-28T06:32:28.125Z,34.54
2023-02-28T06:34:54.717Z,34.89
2023-02-28T06:37:21.358Z,34.82
2023-02-28T06:39:47.907Z,34.55
2023-02-28T06:42:14.336Z,34.55
2023-02-28T06:44:40.895Z,34.49
2023-02-28T06:47:07.376Z,34.59
2023-02-28T06:49:36.249Z,34.19
2023-02-28T06:52:03.703Z,34.20
2023-02-28T06:54:30.239Z,34.07
2023-02-28T06:56:59.002Z,34.53
2023-02-28T06:59:25.503Z,34.43
2023-02-28T07:01:51.999Z,34.37
2023-02-28T07:04:18.556Z,34.49
2023-02-28T07:06:45.010Z,34.00
2023-02-28T07:09:11.748Z,34.68
2023-02-28T07:11:38.316Z,34.23
2023-02-28T07:14:05.051Z,34.00
2023-02-28T07:16:31.696Z,34.05
2023-02-28T07:18:58.224Z,33.90
2023-02-28T07:21:24.853Z,34.33
2023-02-28T07:23:51.821Z,34.40
2023-02-28T07:26:20.280Z,34.56
2023-02-28T07:28:48.936Z,34.21
2023-02-28T07:31:15.859Z,34.32
2023-02-28T07:33:42.697Z,35.00
2023-02-28T07:36:16.040Z,35.37
2023-02-28T07:38:47.784Z,35.03
2023-02-28T07:41:16.872Z,35.14
2023-02-28T07:43:43.400Z,35.46
2023-02-28T07:46:12.145Z,35.66
2023-02-28T07:48:38.698Z,35.72
2023-02-28T07:51:05.405Z,35.48
2023-02-28T07:53:32.020Z,34.88
2023-02-28T07:56:01.760Z,34.94
2023-02-28T07:58:29.979Z,34.64
2023-02-28T08:00:57.246Z,34.82
2023-02-28T08:03:24.608Z,35.03
2023-02-28T08:05:52.451Z,34.87
2023-02-28T08:08:19.162Z,35.14
2023-02-28T08:10:45.759Z,35.21
2023-02-28T08:13:12.316Z,35.51
2023-02-28T08:15:38.891Z,35.48
2023-02-28T08:18:05.529Z,35.24
2023-02-28T08:20:32.050Z,35.44
2023-02-28T08:22:58.588Z,35.30
2023-02-28T08:25:25.452Z,35.58
2023-02-28T08:27:53.270Z,35.55
2023-02-28T08:30:19.975Z,35.55
2023-02-28T08:32:46.509Z,36.15
2023-02-28T08:35:12.998Z,36.15
2023-02-28T08:37:39.551Z,36.21
2023-02-28T08:40:06.827Z,37.03
2023-02-28T08:42:33.834Z,36.10
2023-02-28T08:45:00.283Z,36.22
2023-02-28T08:47:26.980Z,36.26
2023-02-28T08:49:53.570Z,36.39
2023-02-28T08:52:20.061Z,36.43
2023-02-28T08:54:46.523Z,36.03
2023-02-28T08:57:13.010Z,36.10
2023-02-28T08:59:39.591Z,35.70
2023-02-28T09:02:06.140Z,35.65
2023-02-28T09:04:32.590Z,35.81
2023-02-28T09:06:59.047Z,36.03
2023-02-28T09:09:25.569Z,35.69
2023-02-28T09:11:52.073Z,35.62
2023-02-28T09:14:18.720Z,35.94
2023-02-28T09:16:45.315Z,35.59
2023-02-28T09:19:13.240Z,35.83
2023-02-28T09:21:39.817Z,35.56
2023-02-28T09:24:06.844Z,35.63
2023-02-28T09:26:39.034Z,35.78
2023-02-28T09:29:10.221Z,35.27
2023-02-28T09:31:36.684Z,35.60
2023-02-28T09:34:05.102Z,35.41
2023-02-28T09:36:43.815Z,35.50
2023-02-28T09:39:11.731Z,35.62
2023-02-28T09:41:48.239Z,35.58
2023-02-28T09:44:37.572Z,35.47
2023-02-28T09:47:19.893Z,35.01
2023-02-28T09:49:48.976Z,35.24
2023-02-28T09:52:22.449Z,34.91
2023-02-28T09:54:48.957Z,35.49
2023-02-28T09:57:34.489Z,35.43
2023-02-28T10:00:18.232Z,35.47
2023-02-28T10:03:06.831Z,35.01
2023-02-28T10:05:36.224Z,35.03
2023-02-28T10:08:19.187Z,34.49
2023-02-28T10:10:50.443Z,34.50
2023-02-28T10:13:24.921Z,34.10
2023-02-28T10:15:57.731Z,34.05
2023-02-28T10:18:31.087Z,34.04
2023-02-28T10:20:58.651Z,33.74
2023-02-28T10:23:35.848Z,33.92
2023-02-28T10:26:12.886Z,33.51
2023-02-28T10:28:40.112Z,33.47
2023-02-28T10:31:12.554Z,33.10
2023-02-28T10:33:39.275Z,32.93
2023-02-28T10:36:07.737Z,32.80
2023-02-28T10:38:37.506Z,32.71
2023-02-28T10:41:04.771Z,32.40
2023-02-28T10:43:31.240Z,32.71
2023-02-28T10:46:02.454Z,32.39
2023-02-28T10:48:28.923Z,32.25
2023-02-28T10:50:58.771Z,32.08
2023-02-28T10:53:28.382Z,32.15
2023-02-28T10:56:11.135Z,32.00
2023-02-28T10:59:14.914Z,31.85
2023-02-28T11:01:47.173Z,31.75
2023-02-28T11:04:22.501Z,31.67
2023-02-28T11:06:58.831Z,31.99
2023-02-28T11:09:33.594Z,31.79
2023-02-28T11:12:00.960Z,31.53
2023-02-28T11:14:31.887Z,31.50
2023-02-28T11:17:16.531Z,31.25
2023-02-28T11:19:48.493Z,31.13
2023-02-28T11:22:29.782Z,31.12
2023-02-28T11:25:00.558Z,30.91
2023-02-28T11:27:34.691Z,30.86
2023-02-28T11:30:01.755Z,30.83
2023-02-28T11:32:32.394Z,30.69
2023-02-28T11:35:14.812Z,30.64
2023-02-28T11:37:41.500Z,30.61
2023-02-28T11:40:16.298Z,30.37
2023-02-28T11:43:07.432Z,30.39
2023-02-28T17:45:39.079Z,30.62
2023-02-28T17:48:05.995Z,30.48
2023-02-28T17:50:33.917Z,29.67
2023-02-28T17:53:00.394Z,30.03
2023-02-28T17:55:27.186Z,29.19
2023-02-28T17:57:53.770Z,29.19
2023-02-28T18:00:21.657Z,28.97
2023-02-28T18:02:48.201Z,28.94
2023-02-28T18:05:15.246Z,28.44
2023-02-28T18:07:42.145Z,28.34
2023-02-28T18:10:20.292Z,28.51
2023-02-28T18:12:49.386Z,28.86
2023-02-28T18:15:17.725Z,28.55
2023-02-28T18:17:44.376Z,29.61
2023-02-28T18:20:11.751Z,29.13
2023-02-28T18:22:39.537Z,29.41
2023-02-28T18:25:09.264Z,29.30
2023-02-28T18:27:36.683Z,29.13
2023-02-28T18:30:05.202Z,29.45
2023-02-28T18:32:31.904Z,29.27
2023-02-28T18:34:58.781Z,29.98
2023-02-28T18:37:25.324Z,29.27
2023-02-28T18:39:51.863Z,29.44
2023-02-28T18:42:18.395Z,29.54
2023-02-28T18:44:45.018Z,30.02
2023-02-28T18:47:12.034Z,29.45
2023-02-28T18:49:38.636Z,29.45
2023-02-28T18:52:05.239Z,29.51
2023-02-28T18:54:31.904Z,29.75
2023-02-28T18:56:58.640Z,29.88
2023-02-28T18:59:26.082Z,29.53
2023-02-28T19:01:52.610Z,29.72
2023-02-28T19:04:19.269Z,29.29
2023-02-28T19:06:45.983Z,29.47
2023-02-28T19:09:13.765Z,29.52
2023-02-28T19:11:40.384Z,29.36
2023-02-28T19:14:08.077Z,29.25
2023-02-28T19:16:34.876Z,29.24
2023-02-28T19:19:01.562Z,29.32
2023-02-28T19:21:28.142Z,29.25
2023-02-28T19:23:54.670Z,29.60
2023-02-28T19:26:26.551Z,29.58
2023-02-28T19:28:53.327Z,29.23
2023-02-28T19:31:23.220Z,29.43
2023-02-28T19:33:52.696Z,29.57
2023-02-28T19:36:20.177Z,29.56
2023-02-28T19:38:46.812Z,29.00
2023-02-28T19:41:15.544Z,29.14
2023-02-28T19:43:42.236Z,29.47
2023-02-28T19:46:09.975Z,29.54
2023-02-28T19:48:36.712Z,29.17
2023-02-28T19:51:07.558Z,29.19
2023-02-28T19:53:36.362Z,29.02
2023-02-28T19:56:05.514Z,29.15
2023-02-28T19:58:32.755Z,29.19
2023-02-28T20:01:01.320Z,29.10
2023-02-28T20:03:27.954Z,29.20
2023-02-28T20:06:07.167Z,29.89
2023-02-28T20:08:34.206Z,29.91
2023-02-28T20:11:08.910Z,29.93
2023-02-28T20:13:36.058Z,29.62
2023-02-28T20:16:06.113Z,29.60
2023-02-28T20:18:34.220Z,29.65
2023-02-28T20:21:01.830Z,29.90
2023-02-28T20:23:28.464Z,29.92
2023-02-28T20:25:59.081Z,29.89
2023-02-28T20:28:25.683Z,29.61
2023-02-28T20:30:52.514Z,30.02
2023-02-28T20:33:19.582Z,29.51
2023-02-28T20:35:46.298Z,29.81
2023-02-28T20:38:12.925Z,30.14
2023-02-28T20:40:39.509Z,29.67
2023-02-28T20:43:06.553Z,29.79
2023-02-28T20:45:33.152Z,29.79
2023-02-28T20:48:00.820Z,30.02
2023-02-28T20:50:27.387Z,29.89
2023-02-28T20:52:53.921Z,29.88
2023-02-28T20:55:20.502Z,29.61
2023-02-28T20:57:47.458Z,29.58
2023-02-28T21:00:16.297Z,29.42
2023-02-28T21:02:42.944Z,29.29
2023-02-28T21:05:09.807Z,29.60
2023-02-28T21:07:36.307Z,30.64
2023-02-28T21:10:03.020Z,30.65
2023-02-28T21:12:29.591Z,30.50
2023-02-28T21:14:56.399Z,30.38
2023-02-28T21:17:22.929Z,30.07
2023-02-28T21:19:49.529Z,30.18
2023-02-28T21:22:16.270Z,29.92
2023-02-28T21:24:43.935Z,30.11
2023-02-28T21:27:10.512Z,29.91
2023-02-28T21:29:38.348Z,29.82
2023-02-28T21:32:06.586Z,30.08
2023-02-28T21:34:33.218Z,29.70
2023-02-28T21:36:59.763Z,29.92
2023-02-28T21:39:28.859Z,30.35
2023-02-28T21:41:57.017Z,30.33
2023-02-28T21:44:23.575Z,29.66
2023-02-28T21:46:54.818Z,30.28
2023-02-28T21:49:21.564Z,30.58
2023-02-28T21:51:48.372Z,30.41
2023-02-28T21:54:15.062Z,30.04
2023-02-28T21:56:41.756Z,30.26
2023-02-28T21:59:09.707Z,30.29
2023-02-28T22:01:37.858Z,30.12
2023-02-28T22:04:07.118Z,30.28
2023-02-28T22:06:37.098Z,29.87
2023-02-28T22:09:06.002Z,29.70
2023-02-28T22:11:34.560Z,30.28
2023-02-28T22:14:01.778Z,29.87
2023-02-28T22:16:49.710Z,29.79
2023-02-28T22:19:17.866Z,29.95
2023-02-28T22:21:45.681Z,29.77
2023-02-28T22:24:12.328Z,29.32
2023-02-28T22:26:38.911Z,29.38
2023-02-28T22:29:05.561Z,29.47
2023-02-28T22:31:34.394Z,29.60
2023-02-28T22:34:08.748Z,29.76
2023-02-28T22:36:36.488Z,28.99
2023-02-28T22:39:04.816Z,29.17
2023-02-28T22:41:33.593Z,29.27
2023-02-28T22:44:03.327Z,29.31
2023-02-28T22:46:32.516Z,28.96
2023-02-28T22:49:01.054Z,29.27
2023-02-28T22:51:28.170Z,29.49
2023-02-28T22:53:58.146Z,29.48
2023-02-28T22:56:27.125Z,29.01
2023-02-28T22:58:56.198Z,29.38
2023-02-28T23:01:25.379Z,29.02
2023-02-28T23:03:52.303Z,29.19
2023-02-28T23:06:23.425Z,28.96
2023-02-28T23:08:52.045Z,29.37
2023-02-28T23:11:25.060Z,29.35
2023-02-28T23:13:59.491Z,29.28
2023-02-28T23:16:32.920Z,28.78
2023-02-28T23:19:01.964Z,29.01
2023-02-28T23:21:29.155Z,29.03
2023-02-28T23:23:55.936Z,29.25
2023-02-28T23:26:23.930Z,29.25
2023-02-28T23:28:50.537Z,29.01
2023-02-28T23:31:18.293Z,29.10
2023-02-28T23:33:44.916Z,29.30
2023-02-28T23:36:14.076Z,29.11
2023-02-28T23:38:42.452Z,28.83
2023-02-28T23:41:10.495Z,29.03
2023-02-28T23:43:37.554Z,28.72
2023-02-28T23:46:05.127Z,29.03
2023-02-28T23:48:34.099Z,28.85
2023-02-28T23:51:08.824Z,29.38
2023-02-28T23:53:38.089Z,29.22
2023-02-28T23:56:06.756Z,28.98
2023-02-28T23:58:33.920Z,29.12
